METAR Data
IDs: Format: Raw Decoded Include TAF

Data at: 1235 UTC 17 Aug 2019

METAR for:KOPN (Thomaston/Upson Cnty, GA, US)
Text:KOPN 171215Z AUTO 00000KT 10SM CLR 22/18 A3000 RMK AO2
Temperature: 22.0°C ( 72°F)
Dewpoint: 18.0°C ( 64°F) [RH = 78%]
Pressure (altimeter):30.00 inches Hg (1016.0 mb)
Winds:calm
Visibility:10 or more sm (16+ km)
Ceiling:at least 12,000 feet AGL
Clouds:sky clear below 12,000 feet AGL
QC Flag:automated observation with no human augmentation

TAF for:KOPN (Thomaston/Upson Cnty, GA, US)
Text:No data found